sensor_id;sensor_type;location;lat;lon;timestamp;P1;durP1;ratioP1;P2;durP2;ratioP2
5674;SDS011;2860;54.284;10.158;2023-07-29T00:01:15;4.90;;;4.70;;
5674;SDS011;2860;54.284;10.158;2023-07-29T00:03:40;4.43;;;4.13;;
5674;SDS011;2860;54.284;10.158;2023-07-29T00:06:06;4.05;;;3.95;;
5674;SDS011;2860;54.284;10.158;2023-07-29T00:08:31;5.07;;;4.80;;
5674;SDS011;2860;54.284;10.158;2023-07-29T00:10:57;4.45;;;4.25;;
5674;SDS011;2860;54.284;10.158;2023-07-29T00:13:22;4.45;;;4.15;;
5674;SDS011;2860;54.284;10.158;2023-07-29T00:15:48;4.55;;;4.25;;
5674;SDS011;2860;54.284;10.158;2023-07-29T00:18:14;5.93;;;5.03;;
5674;SDS011;2860;54.284;10.158;2023-07-29T00:20:39;4.20;;;4.03;;
5674;SDS011;2860;54.284;10.158;2023-07-29T00:23:04;4.47;;;4.28;;
5674;SDS011;2860;54.284;10.158;2023-07-29T00:25:30;4.85;;;4.38;;
5674;SDS011;2860;54.284;10.158;2023-07-29T00:27:56;6.85;;;4.28;;
5674;SDS011;2860;54.284;10.158;2023-07-29T00:30:21;4.60;;;4.40;;
5674;SDS011;2860;54.284;10.158;2023-07-29T00:32:47;5.43;;;4.85;;
5674;SDS011;2860;54.284;10.158;2023-07-29T00:35:12;4.82;;;4.72;;
5674;SDS011;2860;54.284;10.158;2023-07-29T00:37:38;8.63;;;5.57;;
5674;SDS011;2860;54.284;10.158;2023-07-29T00:40:19;5.75;;;5.45;;
5674;SDS011;2860;54.284;10.158;2023-07-29T00:42:45;5.13;;;4.82;;
5674;SDS011;2860;54.284;10.158;2023-07-29T00:45:11;5.50;;;5.20;;
5674;SDS011;2860;54.284;10.158;2023-07-29T00:47:37;5.55;;;4.32;;
5674;SDS011;2860;54.284;10.158;2023-07-29T00:50:03;5.43;;;4.93;;
5674;SDS011;2860;54.284;10.158;2023-07-29T00:52:29;5.20;;;4.90;;
5674;SDS011;2860;54.284;10.158;2023-07-29T00:54:55;6.20;;;5.60;;
5674;SDS011;2860;54.284;10.158;2023-07-29T00:57:20;5.75;;;5.03;;
5674;SDS011;2860;54.284;10.158;2023-07-29T00:59:48;5.47;;;5.10;;
5674;SDS011;2860;54.284;10.158;2023-07-29T01:02:14;4.85;;;4.45;;
5674;SDS011;2860;54.284;10.158;2023-07-29T01:04:39;4.72;;;4.32;;
5674;SDS011;2860;54.284;10.158;2023-07-29T01:10:07;7.47;;;4.72;;
5674;SDS011;2860;54.284;10.158;2023-07-29T01:12:42;5.88;;;5.45;;
5674;SDS011;2860;54.284;10.158;2023-07-29T01:15:25;4.97;;;4.78;;
5674;SDS011;2860;54.284;10.158;2023-07-29T01:18:02;5.65;;;5.22;;
5674;SDS011;2860;54.284;10.158;2023-07-29T01:20:32;5.97;;;5.53;;
5674;SDS011;2860;54.284;10.158;2023-07-29T01:23:00;6.45;;;5.78;;
5674;SDS011;2860;54.284;10.158;2023-07-29T01:25:25;4.45;;;4.15;;
5674;SDS011;2860;54.284;10.158;2023-07-29T01:27:51;5.63;;;5.43;;
5674;SDS011;2860;54.284;10.158;2023-07-29T01:30:17;5.22;;;5.03;;
5674;SDS011;2860;54.284;10.158;2023-07-29T01:32:53;5.13;;;4.88;;
5674;SDS011;2860;54.284;10.158;2023-07-29T01:35:26;5.28;;;4.78;;
5674;SDS011;2860;54.284;10.158;2023-07-29T01:38:09;5.20;;;4.90;;
5674;SDS011;2860;54.284;10.158;2023-07-29T01:40:41;5.57;;;5.28;;
5674;SDS011;2860;54.284;10.158;2023-07-29T01:43:08;6.20;;;5.68;;
5674;SDS011;2860;54.284;10.158;2023-07-29T01:45:34;4.85;;;4.65;;
5674;SDS011;2860;54.284;10.158;2023-07-29T01:48:07;4.78;;;4.38;;
5674;SDS011;2860;54.284;10.158;2023-07-29T01:50:33;5.20;;;4.72;;
5674;SDS011;2860;54.284;10.158;2023-07-29T01:52:59;5.13;;;4.75;;
5674;SDS011;2860;54.284;10.158;2023-07-29T01:55:24;5.28;;;5.05;;
5674;SDS011;2860;54.284;10.158;2023-07-29T01:57:50;6.03;;;4.70;;
5674;SDS011;2860;54.284;10.158;2023-07-29T02:00:16;5.25;;;4.85;;
5674;SDS011;2860;54.284;10.158;2023-07-29T02:02:43;5.25;;;4.95;;
5674;SDS011;2860;54.284;10.158;2023-07-29T02:05:08;5.22;;;4.82;;
5674;SDS011;2860;54.284;10.158;2023-07-29T02:07:34;4.90;;;4.60;;
5674;SDS011;2860;54.284;10.158;2023-07-29T02:09:59;5.03;;;4.72;;
5674;SDS011;2860;54.284;10.158;2023-07-29T02:12:25;6.53;;;4.70;;
5674;SDS011;2860;54.284;10.158;2023-07-29T02:14:50;5.50;;;4.85;;
5674;SDS011;2860;54.284;10.158;2023-07-29T02:17:16;5.70;;;5.35;;
5674;SDS011;2860;54.284;10.158;2023-07-29T02:19:42;5.97;;;5.60;;
5674;SDS011;2860;54.284;10.158;2023-07-29T02:22:07;5.95;;;5.38;;
5674;SDS011;2860;54.284;10.158;2023-07-29T02:24:33;9.68;;;5.65;;
5674;SDS011;2860;54.284;10.158;2023-07-29T02:26:58;6.32;;;5.82;;
5674;SDS011;2860;54.284;10.158;2023-07-29T02:29:24;8.35;;;6.47;;
5674;SDS011;2860;54.284;10.158;2023-07-29T02:31:50;6.03;;;5.53;;
5674;SDS011;2860;54.284;10.158;2023-07-29T02:34:15;9.32;;;5.25;;
5674;SDS011;2860;54.284;10.158;2023-07-29T02:36:41;6.00;;;5.53;;
5674;SDS011;2860;54.284;10.158;2023-07-29T02:39:06;6.22;;;5.78;;
5674;SDS011;2860;54.284;10.158;2023-07-29T02:41:32;10.25;;;6.35;;
5674;SDS011;2860;54.284;10.158;2023-07-29T02:43:57;6.75;;;6.15;;
5674;SDS011;2860;54.284;10.158;2023-07-29T02:46:23;6.65;;;5.93;;
5674;SDS011;2860;54.284;10.158;2023-07-29T02:48:49;6.18;;;5.68;;
5674;SDS011;2860;54.284;10.158;2023-07-29T02:51:15;6.30;;;5.80;;
5674;SDS011;2860;54.284;10.158;2023-07-29T02:53:41;6.65;;;6.05;;
5674;SDS011;2860;54.284;10.158;2023-07-29T02:56:06;9.00;;;6.97;;
5674;SDS011;2860;54.284;10.158;2023-07-29T02:58:34;9.65;;;7.40;;
5674;SDS011;2860;54.284;10.158;2023-07-29T03:01:00;6.80;;;6.15;;
5674;SDS011;2860;54.284;10.158;2023-07-29T03:03:27;11.43;;;7.70;;
5674;SDS011;2860;54.284;10.158;2023-07-29T03:06:02;9.07;;;6.32;;
5674;SDS011;2860;54.284;10.158;2023-07-29T03:08:29;7.07;;;6.25;;
5674;SDS011;2860;54.284;10.158;2023-07-29T03:10:55;7.22;;;6.47;;
5674;SDS011;2860;54.284;10.158;2023-07-29T03:13:22;8.55;;;6.03;;
5674;SDS011;2860;54.284;10.158;2023-07-29T03:15:47;7.80;;;6.35;;
5674;SDS011;2860;54.284;10.158;2023-07-29T03:18:13;8.90;;;7.28;;
5674;SDS011;2860;54.284;10.158;2023-07-29T03:20:39;11.23;;;7.60;;
5674;SDS011;2860;54.284;10.158;2023-07-29T03:23:05;7.95;;;6.80;;
5674;SDS011;2860;54.284;10.158;2023-07-29T03:25:31;8.50;;;7.60;;
5674;SDS011;2860;54.284;10.158;2023-07-29T03:27:56;11.40;;;8.05;;
5674;SDS011;2860;54.284;10.158;2023-07-29T03:30:22;10.90;;;8.20;;
5674;SDS011;2860;54.284;10.158;2023-07-29T03:32:48;13.43;;;8.95;;
5674;SDS011;2860;54.284;10.158;2023-07-29T03:35:14;10.48;;;7.25;;
5674;SDS011;2860;54.284;10.158;2023-07-29T03:37:43;7.97;;;7.13;;
5674;SDS011;2860;54.284;10.158;2023-07-29T03:40:09;7.55;;;6.35;;
5674;SDS011;2860;54.284;10.158;2023-07-29T03:42:35;12.48;;;8.32;;
5674;SDS011;2860;54.284;10.158;2023-07-29T03:45:01;11.73;;;8.13;;
5674;SDS011;2860;54.284;10.158;2023-07-29T03:47:26;9.32;;;7.57;;
5674;SDS011;2860;54.284;10.158;2023-07-29T03:49:52;12.85;;;8.93;;
5674;SDS011;2860;54.284;10.158;2023-07-29T03:52:18;9.35;;;8.38;;
5674;SDS011;2860;54.284;10.158;2023-07-29T03:54:43;11.05;;;8.27;;
5674;SDS011;2860;54.284;10.158;2023-07-29T03:57:09;14.38;;;8.75;;
5674;SDS011;2860;54.284;10.158;2023-07-29T03:59:34;14.35;;;9.80;;
5674;SDS011;2860;54.284;10.158;2023-07-29T04:02:00;12.63;;;9.27;;
5674;SDS011;2860;54.284;10.158;2023-07-29T04:04:25;13.32;;;9.77;;
5674;SDS011;2860;54.284;10.158;2023-07-29T04:06:51;12.77;;;9.05;;
5674;SDS011;2860;54.284;10.158;2023-07-29T04:09:17;14.25;;;9.40;;
5674;SDS011;2860;54.284;10.158;2023-07-29T04:11:42;11.02;;;8.68;;
5674;SDS011;2860;54.284;10.158;2023-07-29T04:14:08;16.75;;;10.75;;
5674;SDS011;2860;54.284;10.158;2023-07-29T04:16:33;11.90;;;8.45;;
5674;SDS011;2860;54.284;10.158;2023-07-29T04:18:59;12.23;;;9.68;;
5674;SDS011;2860;54.284;10.158;2023-07-29T04:21:24;10.65;;;9.07;;
5674;SDS011;2860;54.284;10.158;2023-07-29T04:23:50;17.88;;;9.63;;
5674;SDS011;2860;54.284;10.158;2023-07-29T04:26:15;12.90;;;10.43;;
5674;SDS011;2860;54.284;10.158;2023-07-29T04:28:41;17.25;;;10.27;;
5674;SDS011;2860;54.284;10.158;2023-07-29T04:31:07;16.73;;;11.25;;
5674;SDS011;2860;54.284;10.158;2023-07-29T04:33:33;18.02;;;11.45;;
5674;SDS011;2860;54.284;10.158;2023-07-29T04:35:58;13.45;;;10.10;;
5674;SDS011;2860;54.284;10.158;2023-07-29T04:38:27;19.75;;;11.30;;
5674;SDS011;2860;54.284;10.158;2023-07-29T04:40:56;16.35;;;11.88;;
5674;SDS011;2860;54.284;10.158;2023-07-29T04:43:21;15.82;;;11.68;;
5674;SDS011;2860;54.284;10.158;2023-07-29T04:45:47;20.60;;;11.82;;
5674;SDS011;2860;54.284;10.158;2023-07-29T04:48:13;16.77;;;11.38;;
5674;SDS011;2860;54.284;10.158;2023-07-29T04:50:38;14.13;;;10.27;;
5674;SDS011;2860;54.284;10.158;2023-07-29T04:53:04;17.88;;;10.75;;
5674;SDS011;2860;54.284;10.158;2023-07-29T04:55:29;16.95;;;11.77;;
5674;SDS011;2860;54.284;10.158;2023-07-29T04:57:55;17.90;;;11.82;;
5674;SDS011;2860;54.284;10.158;2023-07-29T05:00:20;19.10;;;12.68;;
5674;SDS011;2860;54.284;10.158;2023-07-29T05:02:46;20.50;;;10.70;;
5674;SDS011;2860;54.284;10.158;2023-07-29T05:05:12;14.52;;;9.98;;
5674;SDS011;2860;54.284;10.158;2023-07-29T05:07:38;13.60;;;10.23;;
5674;SDS011;2860;54.284;10.158;2023-07-29T05:10:03;16.20;;;10.98;;
5674;SDS011;2860;54.284;10.158;2023-07-29T05:12:29;16.15;;;10.82;;
5674;SDS011;2860;54.284;10.158;2023-07-29T05:14:56;12.00;;;9.65;;
5674;SDS011;2860;54.284;10.158;2023-07-29T05:17:22;17.33;;;10.43;;
5674;SDS011;2860;54.284;10.158;2023-07-29T05:19:47;15.18;;;10.05;;
5674;SDS011;2860;54.284;10.158;2023-07-29T05:22:13;15.52;;;10.60;;
5674;SDS011;2860;54.284;10.158;2023-07-29T05:24:39;14.80;;;10.82;;
5674;SDS011;2860;54.284;10.158;2023-07-29T05:27:04;16.63;;;11.20;;
5674;SDS011;2860;54.284;10.158;2023-07-29T05:29:30;13.98;;;10.02;;
5674;SDS011;2860;54.284;10.158;2023-07-29T05:31:56;13.75;;;11.00;;
5674;SDS011;2860;54.284;10.158;2023-07-29T05:34:22;16.40;;;10.32;;
5674;SDS011;2860;54.284;10.158;2023-07-29T05:36:47;11.18;;;10.07;;
5674;SDS011;2860;54.284;10.158;2023-07-29T05:39:13;10.30;;;9.30;;
5674;SDS011;2860;54.284;10.158;2023-07-29T05:41:38;10.63;;;9.63;;
5674;SDS011;2860;54.284;10.158;2023-07-29T05:44:04;12.93;;;9.95;;
5674;SDS011;2860;54.284;10.158;2023-07-29T05:46:30;8.82;;;8.00;;
5674;SDS011;2860;54.284;10.158;2023-07-29T05:48:55;10.88;;;8.52;;
5674;SDS011;2860;54.284;10.158;2023-07-29T05:51:21;8.77;;;8.02;;
5674;SDS011;2860;54.284;10.158;2023-07-29T05:53:46;8.90;;;8.10;;
5674;SDS011;2860;54.284;10.158;2023-07-29T05:56:12;8.57;;;7.85;;
5674;SDS011;2860;54.284;10.158;2023-07-29T05:58:37;7.70;;;7.03;;
5674;SDS011;2860;54.284;10.158;2023-07-29T06:01:03;8.90;;;7.95;;
5674;SDS011;2860;54.284;10.158;2023-07-29T06:03:28;7.95;;;7.22;;
5674;SDS011;2860;54.284;10.158;2023-07-29T06:05:54;8.30;;;5.47;;
5674;SDS011;2860;54.284;10.158;2023-07-29T06:08:19;7.45;;;6.18;;
5674;SDS011;2860;54.284;10.158;2023-07-29T06:10:45;5.75;;;5.30;;
5674;SDS011;2860;54.284;10.158;2023-07-29T06:13:14;5.20;;;4.88;;
5674;SDS011;2860;54.284;10.158;2023-07-29T06:15:48;4.82;;;4.40;;
5674;SDS011;2860;54.284;10.158;2023-07-29T06:18:14;4.75;;;4.63;;
5674;SDS011;2860;54.284;10.158;2023-07-29T06:20:40;5.65;;;5.35;;
5674;SDS011;2860;54.284;10.158;2023-07-29T06:23:06;4.72;;;4.50;;
5674;SDS011;2860;54.284;10.158;2023-07-29T06:25:33;5.53;;;5.25;;
5674;SDS011;2860;54.284;10.158;2023-07-29T06:27:58;5.00;;;4.75;;
5674;SDS011;2860;54.284;10.158;2023-07-29T06:30:24;4.85;;;4.65;;
5674;SDS011;2860;54.284;10.158;2023-07-29T06:32:49;5.30;;;4.65;;
5674;SDS011;2860;54.284;10.158;2023-07-29T06:35:15;6.20;;;5.70;;
5674;SDS011;2860;54.284;10.158;2023-07-29T06:37:40;11.00;;;6.28;;
5674;SDS011;2860;54.284;10.158;2023-07-29T06:40:06;6.80;;;6.18;;
5674;SDS011;2860;54.284;10.158;2023-07-29T06:42:32;7.22;;;6.78;;
5674;SDS011;2860;54.284;10.158;2023-07-29T06:44:57;7.80;;;7.40;;
5674;SDS011;2860;54.284;10.158;2023-07-29T06:47:29;7.82;;;7.05;;
5674;SDS011;2860;54.284;10.158;2023-07-29T06:49:54;9.20;;;8.40;;
5674;SDS011;2860;54.284;10.158;2023-07-29T06:52:20;8.35;;;7.88;;
5674;SDS011;2860;54.284;10.158;2023-07-29T06:54:45;8.52;;;7.88;;
5674;SDS011;2860;54.284;10.158;2023-07-29T06:57:11;9.38;;;8.82;;
5674;SDS011;2860;54.284;10.158;2023-07-29T06:59:36;9.88;;;9.18;;
5674;SDS011;2860;54.284;10.158;2023-07-29T07:02:02;10.65;;;9.80;;
5674;SDS011;2860;54.284;10.158;2023-07-29T07:04:27;11.38;;;10.50;;
5674;SDS011;2860;54.284;10.158;2023-07-29T07:06:53;11.20;;;10.20;;
5674;SDS011;2860;54.284;10.158;2023-07-29T07:09:19;12.05;;;10.90;;
5674;SDS011;2860;54.284;10.158;2023-07-29T07:11:44;11.88;;;10.95;;
5674;SDS011;2860;54.284;10.158;2023-07-29T07:14:10;12.98;;;11.50;;
5674;SDS011;2860;54.284;10.158;2023-07-29T07:16:35;11.15;;;10.25;;
5674;SDS011;2860;54.284;10.158;2023-07-29T07:19:02;11.90;;;10.82;;
5674;SDS011;2860;54.284;10.158;2023-07-29T07:21:27;11.88;;;10.70;;
5674;SDS011;2860;54.284;10.158;2023-07-29T07:23:53;14.73;;;11.75;;
5674;SDS011;2860;54.284;10.158;2023-07-29T07:26:18;12.40;;;11.40;;
5674;SDS011;2860;54.284;10.158;2023-07-29T07:28:44;12.27;;;11.45;;
5674;SDS011;2860;54.284;10.158;2023-07-29T07:31:10;13.77;;;11.77;;
5674;SDS011;2860;54.284;10.158;2023-07-29T07:33:35;12.48;;;11.10;;
5674;SDS011;2860;54.284;10.158;2023-07-29T07:36:00;12.93;;;11.73;;
5674;SDS011;2860;54.284;10.158;2023-07-29T07:38:26;13.00;;;11.75;;
5674;SDS011;2860;54.284;10.158;2023-07-29T07:40:55;12.13;;;11.23;;
5674;SDS011;2860;54.284;10.158;2023-07-29T07:43:21;11.40;;;10.55;;
5674;SDS011;2860;54.284;10.158;2023-07-29T07:45:47;11.88;;;10.77;;
5674;SDS011;2860;54.284;10.158;2023-07-29T07:48:13;12.73;;;11.80;;
5674;SDS011;2860;54.284;10.158;2023-07-29T07:50:39;12.20;;;10.98;;
5674;SDS011;2860;54.284;10.158;2023-07-29T07:53:04;12.13;;;11.23;;
5674;SDS011;2860;54.284;10.158;2023-07-29T07:55:30;11.57;;;10.68;;
5674;SDS011;2860;54.284;10.158;2023-07-29T07:57:56;11.20;;;10.40;;
5674;SDS011;2860;54.284;10.158;2023-07-29T08:00:21;10.23;;;9.38;;
5674;SDS011;2860;54.284;10.158;2023-07-29T08:02:46;10.35;;;9.55;;
5674;SDS011;2860;54.284;10.158;2023-07-29T08:05:12;10.45;;;9.25;;
5674;SDS011;2860;54.284;10.158;2023-07-29T08:07:38;11.52;;;10.52;;
5674;SDS011;2860;54.284;10.158;2023-07-29T08:10:03;11.77;;;10.68;;
5674;SDS011;2860;54.284;10.158;2023-07-29T08:12:29;10.50;;;9.80;;
5674;SDS011;2860;54.284;10.158;2023-07-29T08:14:55;11.02;;;10.13;;
5674;SDS011;2860;54.284;10.158;2023-07-29T08:20:29;9.85;;;8.98;;
5674;SDS011;2860;54.284;10.158;2023-07-29T08:22:54;11.02;;;9.38;;
5674;SDS011;2860;54.284;10.158;2023-07-29T08:25:20;10.07;;;9.15;;
5674;SDS011;2860;54.284;10.158;2023-07-29T08:27:45;10.15;;;9.35;;
5674;SDS011;2860;54.284;10.158;2023-07-29T08:30:11;9.30;;;8.75;;
5674;SDS011;2860;54.284;10.158;2023-07-29T08:32:37;9.85;;;9.02;;
5674;SDS011;2860;54.284;10.158;2023-07-29T08:35:02;10.90;;;9.07;;
5674;SDS011;2860;54.284;10.158;2023-07-29T08:37:28;9.40;;;8.80;;
5674;SDS011;2860;54.284;10.158;2023-07-29T08:39:54;9.60;;;8.82;;
5674;SDS011;2860;54.284;10.158;2023-07-29T08:42:20;9.95;;;9.00;;
5674;SDS011;2860;54.284;10.158;2023-07-29T08:44:48;9.93;;;8.90;;
5674;SDS011;2860;54.284;10.158;2023-07-29T08:47:14;9.70;;;8.80;;
5674;SDS011;2860;54.284;10.158;2023-07-29T08:49:40;9.45;;;8.57;;
5674;SDS011;2860;54.284;10.158;2023-07-29T08:52:06;8.75;;;8.07;;
5674;SDS011;2860;54.284;10.158;2023-07-29T08:54:32;9.85;;;8.95;;
5674;SDS011;2860;54.284;10.158;2023-07-29T08:56:58;14.43;;;8.27;;
5674;SDS011;2860;54.284;10.158;2023-07-29T08:59:25;10.43;;;8.55;;
5674;SDS011;2860;54.284;10.158;2023-07-29T09:01:53;8.43;;;7.88;;
5674;SDS011;2860;54.284;10.158;2023-07-29T09:04:22;7.53;;;7.20;;
5674;SDS011;2860;54.284;10.158;2023-07-29T09:06:48;8.20;;;7.35;;
5674;SDS011;2860;54.284;10.158;2023-07-29T09:09:15;8.18;;;7.47;;
5674;SDS011;2860;54.284;10.158;2023-07-29T09:11:41;7.88;;;6.97;;
5674;SDS011;2860;54.284;10.158;2023-07-29T09:14:06;7.45;;;6.90;;
5674;SDS011;2860;54.284;10.158;2023-07-29T09:16:32;7.07;;;6.60;;
5674;SDS011;2860;54.284;10.158;2023-07-29T09:19:01;5.65;;;5.35;;
5674;SDS011;2860;54.284;10.158;2023-07-29T09:21:28;7.22;;;6.68;;
5674;SDS011;2860;54.284;10.158;2023-07-29T09:23:54;7.30;;;6.70;;
5674;SDS011;2860;54.284;10.158;2023-07-29T09:26:23;6.13;;;5.80;;
5674;SDS011;2860;54.284;10.158;2023-07-29T09:28:56;6.32;;;5.95;;
5674;SDS011;2860;54.284;10.158;2023-07-29T09:31:23;5.65;;;5.45;;
5674;SDS011;2860;54.284;10.158;2023-07-29T09:33:50;5.47;;;5.18;;
5674;SDS011;2860;54.284;10.158;2023-07-29T09:36:22;6.05;;;5.63;;
5674;SDS011;2860;54.284;10.158;2023-07-29T09:38:47;4.88;;;4.72;;
5674;SDS011;2860;54.284;10.158;2023-07-29T09:41:13;5.20;;;4.80;;
5674;SDS011;2860;54.284;10.158;2023-07-29T09:43:40;4.63;;;4.28;;
5674;SDS011;2860;54.284;10.158;2023-07-29T09:46:06;5.53;;;4.65;;
5674;SDS011;2860;54.284;10.158;2023-07-29T09:48:34;5.88;;;5.57;;
5674;SDS011;2860;54.284;10.158;2023-07-29T09:51:10;4.50;;;4.35;;
5674;SDS011;2860;54.284;10.158;2023-07-29T09:53:42;4.65;;;4.55;;
5674;SDS011;2860;54.284;10.158;2023-07-29T09:56:09;5.20;;;4.57;;
5674;SDS011;2860;54.284;10.158;2023-07-29T09:58:35;4.57;;;4.32;;
5674;SDS011;2860;54.284;10.158;2023-07-29T10:01:03;5.93;;;4.35;;
5674;SDS011;2860;54.284;10.158;2023-07-29T10:03:29;3.38;;;3.28;;
5674;SDS011;2860;54.284;10.158;2023-07-29T10:05:56;3.45;;;3.35;;
5674;SDS011;2860;54.284;10.158;2023-07-29T10:08:26;5.45;;;3.35;;
5674;SDS011;2860;54.284;10.158;2023-07-29T10:10:53;2.63;;;2.47;;
5674;SDS011;2860;54.284;10.158;2023-07-29T10:13:19;3.20;;;2.55;;
5674;SDS011;2860;54.284;10.158;2023-07-29T10:15:45;4.07;;;3.95;;
5674;SDS011;2860;54.284;10.158;2023-07-29T10:18:12;3.53;;;3.33;;
5674;SDS011;2860;54.284;10.158;2023-07-29T10:20:38;4.20;;;4.05;;
5674;SDS011;2860;54.284;10.158;2023-07-29T10:23:05;4.47;;;4.20;;
5674;SDS011;2860;54.284;10.158;2023-07-29T10:25:37;4.88;;;4.57;;
5674;SDS011;2860;54.284;10.158;2023-07-29T10:28:07;3.92;;;3.83;;
5674;SDS011;2860;54.284;10.158;2023-07-29T10:30:36;3.97;;;3.90;;
5674;SDS011;2860;54.284;10.158;2023-07-29T10:33:03;3.85;;;3.58;;
5674;SDS011;2860;54.284;10.158;2023-07-29T10:35:33;3.67;;;3.58;;
5674;SDS011;2860;54.284;10.158;2023-07-29T10:38:00;4.20;;;3.85;;
5674;SDS011;2860;54.284;10.158;2023-07-29T10:40:28;3.20;;;3.20;;
5674;SDS011;2860;54.284;10.158;2023-07-29T10:43:12;3.28;;;3.08;;
5674;SDS011;2860;54.284;10.158;2023-07-29T10:45:43;2.40;;;2.38;;
5674;SDS011;2860;54.284;10.158;2023-07-29T10:48:12;3.03;;;2.92;;
5674;SDS011;2860;54.284;10.158;2023-07-29T10:53:56;2.92;;;2.92;;
5674;SDS011;2860;54.284;10.158;2023-07-29T10:56:32;5.45;;;3.33;;
5674;SDS011;2860;54.284;10.158;2023-07-29T10:59:02;3.45;;;3.00;;
5674;SDS011;2860;54.284;10.158;2023-07-29T11:01:38;3.13;;;3.03;;
5674;SDS011;2860;54.284;10.158;2023-07-29T11:07:01;3.13;;;2.95;;
5674;SDS011;2860;54.284;10.158;2023-07-29T11:17:40;2.03;;;2.03;;
5674;SDS011;2860;54.284;10.158;2023-07-29T11:20:12;2.08;;;1.95;;
5674;SDS011;2860;54.284;10.158;2023-07-29T11:22:38;4.10;;;1.50;;
5674;SDS011;2860;54.284;10.158;2023-07-29T11:25:04;1.75;;;1.73;;
5674;SDS011;2860;54.284;10.158;2023-07-29T11:27:31;2.78;;;1.50;;
5674;SDS011;2860;54.284;10.158;2023-07-29T11:29:58;1.50;;;1.50;;
5674;SDS011;2860;54.284;10.158;2023-07-29T11:32:25;1.60;;;1.50;;
5674;SDS011;2860;54.284;10.158;2023-07-29T11:34:50;1.60;;;1.60;;
5674;SDS011;2860;54.284;10.158;2023-07-29T11:37:16;2.47;;;1.55;;
5674;SDS011;2860;54.284;10.158;2023-07-29T11:39:42;2.83;;;2.05;;
5674;SDS011;2860;54.284;10.158;2023-07-29T11:42:12;2.45;;;2.35;;
5674;SDS011;2860;54.284;10.158;2023-07-29T11:44:38;1.50;;;1.50;;
5674;SDS011;2860;54.284;10.158;2023-07-29T11:47:12;1.70;;;1.70;;
5674;SDS011;2860;54.284;10.158;2023-07-29T11:49:38;2.03;;;1.50;;
5674;SDS011;2860;54.284;10.158;2023-07-29T11:52:08;1.45;;;1.45;;
5674;SDS011;2860;54.284;10.158;2023-07-29T11:54:35;1.40;;;1.40;;
5674;SDS011;2860;54.284;10.158;2023-07-29T11:57:10;0.90;;;0.90;;
5674;SDS011;2860;54.284;10.158;2023-07-29T11:59:37;1.15;;;1.15;;
5674;SDS011;2860;54.284;10.158;2023-07-29T12:02:36;0.93;;;0.93;;
5674;SDS011;2860;54.284;10.158;2023-07-29T12:04:55;1.10;;;1.10;;
5674;SDS011;2860;54.284;10.158;2023-07-29T12:07:22;1.50;;;1.50;;
5674;SDS011;2860;54.284;10.158;2023-07-29T12:09:47;1.10;;;1.10;;
5674;SDS011;2860;54.284;10.158;2023-07-29T12:12:15;2.97;;;1.17;;
5674;SDS011;2860;54.284;10.158;2023-07-29T12:14:43;1.00;;;1.00;;
5674;SDS011;2860;54.284;10.158;2023-07-29T12:17:11;1.15;;;1.15;;
5674;SDS011;2860;54.284;10.158;2023-07-29T12:19:37;0.95;;;0.95;;
5674;SDS011;2860;54.284;10.158;2023-07-29T12:22:04;1.33;;;1.33;;
5674;SDS011;2860;54.284;10.158;2023-07-29T12:24:36;1.17;;;1.17;;
5674;SDS011;2860;54.284;10.158;2023-07-29T12:27:03;1.02;;;1.02;;
5674;SDS011;2860;54.284;10.158;2023-07-29T12:29:29;1.20;;;1.20;;
5674;SDS011;2860;54.284;10.158;2023-07-29T12:31:58;0.95;;;0.95;;
5674;SDS011;2860;54.284;10.158;2023-07-29T12:34:28;1.00;;;1.00;;
5674;SDS011;2860;54.284;10.158;2023-07-29T12:36:55;2.22;;;1.23;;
5674;SDS011;2860;54.284;10.158;2023-07-29T12:39:23;1.63;;;1.20;;
5674;SDS011;2860;54.284;10.158;2023-07-29T12:41:54;1.05;;;1.05;;
5674;SDS011;2860;54.284;10.158;2023-07-29T12:44:20;1.23;;;1.23;;
5674;SDS011;2860;54.284;10.158;2023-07-29T12:46:48;1.42;;;1.42;;
5674;SDS011;2860;54.284;10.158;2023-07-29T12:49:13;2.60;;;1.50;;
5674;SDS011;2860;54.284;10.158;2023-07-29T12:51:39;1.55;;;1.17;;
5674;SDS011;2860;54.284;10.158;2023-07-29T12:54:04;1.30;;;1.30;;
5674;SDS011;2860;54.284;10.158;2023-07-29T12:56:30;1.00;;;1.00;;
5674;SDS011;2860;54.284;10.158;2023-07-29T12:58:57;1.20;;;1.20;;
5674;SDS011;2860;54.284;10.158;2023-07-29T13:01:23;1.15;;;1.15;;
5674;SDS011;2860;54.284;10.158;2023-07-29T13:03:49;2.47;;;1.10;;
5674;SDS011;2860;54.284;10.158;2023-07-29T13:06:15;1.23;;;1.23;;
5674;SDS011;2860;54.284;10.158;2023-07-29T13:08:41;1.00;;;1.00;;
5674;SDS011;2860;54.284;10.158;2023-07-29T13:11:07;1.20;;;1.20;;
5674;SDS011;2860;54.284;10.158;2023-07-29T13:13:32;2.75;;;1.20;;
5674;SDS011;2860;54.284;10.158;2023-07-29T13:15:58;1.10;;;1.10;;
5674;SDS011;2860;54.284;10.158;2023-07-29T13:18:24;1.95;;;1.20;;
5674;SDS011;2860;54.284;10.158;2023-07-29T13:20:50;1.20;;;1.20;;
5674;SDS011;2860;54.284;10.158;2023-07-29T13:23:15;1.45;;;1.45;;
5674;SDS011;2860;54.284;10.158;2023-07-29T13:25:41;1.10;;;1.10;;
5674;SDS011;2860;54.284;10.158;2023-07-29T13:28:08;1.77;;;1.77;;
5674;SDS011;2860;54.284;10.158;2023-07-29T13:30:34;2.13;;;2.03;;
5674;SDS011;2860;54.284;10.158;2023-07-29T13:33:00;3.60;;;2.42;;
5674;SDS011;2860;54.284;10.158;2023-07-29T13:35:25;2.05;;;1.95;;
5674;SDS011;2860;54.284;10.158;2023-07-29T13:37:51;1.95;;;1.95;;
5674;SDS011;2860;54.284;10.158;2023-07-29T13:40:17;2.70;;;2.60;;
5674;SDS011;2860;54.284;10.158;2023-07-29T13:42:42;2.25;;;2.15;;
5674;SDS011;2860;54.284;10.158;2023-07-29T13:45:08;2.05;;;2.05;;
5674;SDS011;2860;54.284;10.158;2023-07-29T13:47:34;1.80;;;1.80;;
5674;SDS011;2860;54.284;10.158;2023-07-29T13:49:59;2.70;;;1.83;;
5674;SDS011;2860;54.284;10.158;2023-07-29T13:52:25;2.58;;;2.22;;
5674;SDS011;2860;54.284;10.158;2023-07-29T13:54:51;1.60;;;1.50;;
5674;SDS011;2860;54.284;10.158;2023-07-29T13:57:17;2.58;;;1.40;;
5674;SDS011;2860;54.284;10.158;2023-07-29T13:59:42;1.80;;;1.80;;
5674;SDS011;2860;54.284;10.158;2023-07-29T14:02:08;1.70;;;1.70;;
5674;SDS011;2860;54.284;10.158;2023-07-29T14:04:33;2.50;;;1.60;;
5674;SDS011;2860;54.284;10.158;2023-07-29T14:06:59;1.80;;;1.80;;
5674;SDS011;2860;54.284;10.158;2023-07-29T14:09:25;2.08;;;1.98;;
5674;SDS011;2860;54.284;10.158;2023-07-29T14:11:51;2.60;;;2.50;;
5674;SDS011;2860;54.284;10.158;2023-07-29T14:14:17;2.22;;;2.00;;
5674;SDS011;2860;54.284;10.158;2023-07-29T14:16:42;2.47;;;1.38;;
5674;SDS011;2860;54.284;10.158;2023-07-29T14:19:08;1.38;;;1.35;;
5674;SDS011;2860;54.284;10.158;2023-07-29T14:21:33;1.35;;;1.35;;
5674;SDS011;2860;54.284;10.158;2023-07-29T14:23:59;2.35;;;1.60;;
5674;SDS011;2860;54.284;10.158;2023-07-29T14:26:25;1.98;;;1.83;;
5674;SDS011;2860;54.284;10.158;2023-07-29T14:28:50;1.83;;;1.83;;
5674;SDS011;2860;54.284;10.158;2023-07-29T14:31:16;2.00;;;1.90;;
5674;SDS011;2860;54.284;10.158;2023-07-29T14:33:42;1.65;;;1.50;;
5674;SDS011;2860;54.284;10.158;2023-07-29T14:36:08;3.65;;;1.83;;
5674;SDS011;2860;54.284;10.158;2023-07-29T14:38:34;1.35;;;1.35;;
5674;SDS011;2860;54.284;10.158;2023-07-29T14:41:00;1.80;;;1.70;;
5674;SDS011;2860;54.284;10.158;2023-07-29T14:43:26;1.60;;;1.60;;
5674;SDS011;2860;54.284;10.158;2023-07-29T14:45:51;1.42;;;1.40;;
5674;SDS011;2860;54.284;10.158;2023-07-29T14:48:17;1.40;;;1.40;;
5674;SDS011;2860;54.284;10.158;2023-07-29T14:50:42;1.48;;;1.48;;
5674;SDS011;2860;54.284;10.158;2023-07-29T14:53:08;1.60;;;1.50;;
5674;SDS011;2860;54.284;10.158;2023-07-29T14:55:35;2.10;;;1.52;;
5674;SDS011;2860;54.284;10.158;2023-07-29T14:58:01;1.75;;;1.73;;
5674;SDS011;2860;54.284;10.158;2023-07-29T15:00:27;1.70;;;1.60;;
5674;SDS011;2860;54.284;10.158;2023-07-29T15:02:52;2.25;;;1.40;;
5674;SDS011;2860;54.284;10.158;2023-07-29T15:05:18;1.52;;;1.42;;
5674;SDS011;2860;54.284;10.158;2023-07-29T15:07:43;1.95;;;1.58;;
5674;SDS011;2860;54.284;10.158;2023-07-29T15:10:09;1.30;;;1.27;;
5674;SDS011;2860;54.284;10.158;2023-07-29T15:12:34;5.65;;;1.98;;